sensor_id;sensor_type;location;lat;lon;timestamp;temperature;humidity
15947;DHT22;8072;52.554;7.966;2023-07-29T00:01:44;18.40;99.90
15947;DHT22;8072;52.554;7.966;2023-07-29T00:04:09;18.40;99.90
15947;DHT22;8072;52.554;7.966;2023-07-29T00:06:35;18.40;99.90
15947;DHT22;8072;52.554;7.966;2023-07-29T00:09:02;18.40;99.90
15947;DHT22;8072;52.554;7.966;2023-07-29T00:11:28;18.40;99.90
15947;DHT22;8072;52.554;7.966;2023-07-29T00:13:54;18.40;99.90
15947;DHT22;8072;52.554;7.966;2023-07-29T00:16:20;18.40;99.90
15947;DHT22;8072;52.554;7.966;2023-07-29T00:18:49;18.30;99.90
15947;DHT22;8072;52.554;7.966;2023-07-29T00:21:16;18.30;99.90
15947;DHT22;8072;52.554;7.966;2023-07-29T00:23:41;18.30;99.90
15947;DHT22;8072;52.554;7.966;2023-07-29T00:26:07;18.30;99.90
15947;DHT22;8072;52.554;7.966;2023-07-29T00:28:33;18.30;99.90
15947;DHT22;8072;52.554;7.966;2023-07-29T00:30:59;18.30;99.90
15947;DHT22;8072;52.554;7.966;2023-07-29T00:33:24;18.30;99.90
15947;DHT22;8072;52.554;7.966;2023-07-29T00:35:50;18.30;99.90
15947;DHT22;8072;52.554;7.966;2023-07-29T00:38:16;18.20;99.90
15947;DHT22;8072;52.554;7.966;2023-07-29T00:40:42;18.20;99.90
15947;DHT22;8072;52.554;7.966;2023-07-29T00:43:08;18.20;99.90
15947;DHT22;8072;52.554;7.966;2023-07-29T00:45:34;18.10;99.90
15947;DHT22;8072;52.554;7.966;2023-07-29T00:48:00;18.10;99.90
15947;DHT22;8072;52.554;7.966;2023-07-29T00:50:27;18.10;99.90
15947;DHT22;8072;52.554;7.966;2023-07-29T00:52:54;18.00;99.90
15947;DHT22;8072;52.554;7.966;2023-07-29T00:55:20;18.00;99.90
15947;DHT22;8072;52.554;7.966;2023-07-29T00:57:46;18.00;99.90
15947;DHT22;8072;52.554;7.966;2023-07-29T01:00:15;18.00;99.90
15947;DHT22;8072;52.554;7.966;2023-07-29T01:02:42;17.90;99.90
15947;DHT22;8072;52.554;7.966;2023-07-29T01:05:09;17.90;99.90
15947;DHT22;8072;52.554;7.966;2023-07-29T01:13:34;17.90;99.90
15947;DHT22;8072;52.554;7.966;2023-07-29T01:16:10;17.80;99.90
15947;DHT22;8072;52.554;7.966;2023-07-29T01:18:39;17.80;99.90
15947;DHT22;8072;52.554;7.966;2023-07-29T01:21:08;17.80;99.90
15947;DHT22;8072;52.554;7.966;2023-07-29T01:23:34;17.80;99.90
15947;DHT22;8072;52.554;7.966;2023-07-29T01:26:02;17.80;99.90
15947;DHT22;8072;52.554;7.966;2023-07-29T01:28:28;17.70;99.90
15947;DHT22;8072;52.554;7.966;2023-07-29T01:33:49;17.70;99.90
15947;DHT22;8072;52.554;7.966;2023-07-29T01:36:21;17.60;99.90
15947;DHT22;8072;52.554;7.966;2023-07-29T01:38:49;17.60;99.90
15947;DHT22;8072;52.554;7.966;2023-07-29T01:41:17;17.60;99.90
15947;DHT22;8072;52.554;7.966;2023-07-29T01:43:44;17.60;99.90
15947;DHT22;8072;52.554;7.966;2023-07-29T01:46:11;17.60;99.90
15947;DHT22;8072;52.554;7.966;2023-07-29T01:48:39;17.60;99.90
15947;DHT22;8072;52.554;7.966;2023-07-29T01:51:06;17.60;99.90
15947;DHT22;8072;52.554;7.966;2023-07-29T01:53:32;17.60;99.90
15947;DHT22;8072;52.554;7.966;2023-07-29T01:55:58;17.60;99.90
15947;DHT22;8072;52.554;7.966;2023-07-29T01:58:24;17.60;99.90
15947;DHT22;8072;52.554;7.966;2023-07-29T02:00:50;17.60;99.90
15947;DHT22;8072;52.554;7.966;2023-07-29T02:03:16;17.60;99.90
15947;DHT22;8072;52.554;7.966;2023-07-29T02:05:42;17.60;99.90
15947;DHT22;8072;52.554;7.966;2023-07-29T02:08:09;17.60;99.90
15947;DHT22;8072;52.554;7.966;2023-07-29T02:10:35;17.60;99.90
15947;DHT22;8072;52.554;7.966;2023-07-29T02:13:01;17.60;99.90
15947;DHT22;8072;52.554;7.966;2023-07-29T02:15:27;17.60;99.90
15947;DHT22;8072;52.554;7.966;2023-07-29T02:17:53;17.60;99.90
15947;DHT22;8072;52.554;7.966;2023-07-29T02:20:19;17.60;99.90
15947;DHT22;8072;52.554;7.966;2023-07-29T02:22:45;17.50;99.90
15947;DHT22;8072;52.554;7.966;2023-07-29T02:25:11;17.50;99.90
15947;DHT22;8072;52.554;7.966;2023-07-29T02:27:37;17.40;99.90
15947;DHT22;8072;52.554;7.966;2023-07-29T02:30:03;17.40;99.90
15947;DHT22;8072;52.554;7.966;2023-07-29T02:32:29;17.30;99.90
15947;DHT22;8072;52.554;7.966;2023-07-29T02:34:54;17.30;99.90
15947;DHT22;8072;52.554;7.966;2023-07-29T02:37:20;17.30;99.90
15947;DHT22;8072;52.554;7.966;2023-07-29T02:39:46;17.20;99.90
15947;DHT22;8072;52.554;7.966;2023-07-29T02:42:12;17.30;99.90
15947;DHT22;8072;52.554;7.966;2023-07-29T02:44:40;17.30;99.90
15947;DHT22;8072;52.554;7.966;2023-07-29T02:47:06;17.40;99.90
15947;DHT22;8072;52.554;7.966;2023-07-29T02:49:31;17.40;99.90
15947;DHT22;8072;52.554;7.966;2023-07-29T02:51:57;17.40;99.90
15947;DHT22;8072;52.554;7.966;2023-07-29T02:54:23;17.40;99.90
15947;DHT22;8072;52.554;7.966;2023-07-29T02:56:50;17.50;99.90
15947;DHT22;8072;52.554;7.966;2023-07-29T02:59:16;17.50;99.90
15947;DHT22;8072;52.554;7.966;2023-07-29T03:01:42;17.60;99.90
15947;DHT22;8072;52.554;7.966;2023-07-29T03:04:08;17.50;99.90
15947;DHT22;8072;52.554;7.966;2023-07-29T03:06:33;17.60;99.90
15947;DHT22;8072;52.554;7.966;2023-07-29T03:08:59;17.60;99.90
15947;DHT22;8072;52.554;7.966;2023-07-29T03:11:25;17.70;99.90
15947;DHT22;8072;52.554;7.966;2023-07-29T03:13:51;17.60;99.90
15947;DHT22;8072;52.554;7.966;2023-07-29T03:16:17;17.70;99.90
15947;DHT22;8072;52.554;7.966;2023-07-29T03:18:44;17.70;99.90
15947;DHT22;8072;52.554;7.966;2023-07-29T03:21:10;17.60;99.90
15947;DHT22;8072;52.554;7.966;2023-07-29T03:23:36;17.60;99.90
15947;DHT22;8072;52.554;7.966;2023-07-29T03:26:03;17.60;99.90
15947;DHT22;8072;52.554;7.966;2023-07-29T03:28:44;17.60;99.90
15947;DHT22;8072;52.554;7.966;2023-07-29T03:31:10;17.60;99.90
15947;DHT22;8072;52.554;7.966;2023-07-29T03:33:36;17.60;99.90
15947;DHT22;8072;52.554;7.966;2023-07-29T03:36:02;17.70;99.90
15947;DHT22;8072;52.554;7.966;2023-07-29T03:38:28;17.70;99.90
15947;DHT22;8072;52.554;7.966;2023-07-29T03:40:54;17.70;99.90
15947;DHT22;8072;52.554;7.966;2023-07-29T03:43:20;17.80;99.90
15947;DHT22;8072;52.554;7.966;2023-07-29T03:45:45;17.80;99.90
15947;DHT22;8072;52.554;7.966;2023-07-29T03:48:11;17.90;99.90
15947;DHT22;8072;52.554;7.966;2023-07-29T03:50:37;17.90;99.90
15947;DHT22;8072;52.554;7.966;2023-07-29T03:53:03;18.00;99.90
15947;DHT22;8072;52.554;7.966;2023-07-29T03:55:30;18.00;99.90
15947;DHT22;8072;52.554;7.966;2023-07-29T03:57:59;18.00;99.90
15947;DHT22;8072;52.554;7.966;2023-07-29T04:00:26;18.10;99.90
15947;DHT22;8072;52.554;7.966;2023-07-29T04:02:52;18.10;99.90
15947;DHT22;8072;52.554;7.966;2023-07-29T04:05:18;18.10;99.90
15947;DHT22;8072;52.554;7.966;2023-07-29T04:07:44;18.10;99.90
15947;DHT22;8072;52.554;7.966;2023-07-29T04:10:10;18.20;99.90
15947;DHT22;8072;52.554;7.966;2023-07-29T04:12:36;18.20;99.90
15947;DHT22;8072;52.554;7.966;2023-07-29T04:15:02;18.20;99.90
15947;DHT22;8072;52.554;7.966;2023-07-29T04:17:28;18.20;99.90
15947;DHT22;8072;52.554;7.966;2023-07-29T04:19:53;18.20;99.90
15947;DHT22;8072;52.554;7.966;2023-07-29T04:22:19;18.30;99.90
15947;DHT22;8072;52.554;7.966;2023-07-29T04:24:46;18.30;99.90
15947;DHT22;8072;52.554;7.966;2023-07-29T04:27:12;18.30;99.90
15947;DHT22;8072;52.554;7.966;2023-07-29T04:29:38;18.30;99.90
15947;DHT22;8072;52.554;7.966;2023-07-29T04:32:04;18.30;99.90
15947;DHT22;8072;52.554;7.966;2023-07-29T04:34:31;18.30;99.90
15947;DHT22;8072;52.554;7.966;2023-07-29T04:36:57;18.30;99.90
15947;DHT22;8072;52.554;7.966;2023-07-29T04:39:23;18.30;99.90
15947;DHT22;8072;52.554;7.966;2023-07-29T04:41:48;18.20;99.90
15947;DHT22;8072;52.554;7.966;2023-07-29T04:44:14;18.30;99.90
15947;DHT22;8072;52.554;7.966;2023-07-29T04:46:40;18.20;99.90
15947;DHT22;8072;52.554;7.966;2023-07-29T04:49:05;18.30;99.90
15947;DHT22;8072;52.554;7.966;2023-07-29T04:51:31;18.20;99.90
15947;DHT22;8072;52.554;7.966;2023-07-29T04:53:58;18.20;99.90
15947;DHT22;8072;52.554;7.966;2023-07-29T04:56:24;18.20;99.90
15947;DHT22;8072;52.554;7.966;2023-07-29T04:58:49;18.20;99.90
15947;DHT22;8072;52.554;7.966;2023-07-29T05:01:15;18.20;99.90
15947;DHT22;8072;52.554;7.966;2023-07-29T05:03:41;18.20;99.90
15947;DHT22;8072;52.554;7.966;2023-07-29T05:06:07;18.30;99.90
15947;DHT22;8072;52.554;7.966;2023-07-29T05:08:32;18.30;99.90
15947;DHT22;8072;52.554;7.966;2023-07-29T05:10:58;18.30;99.90
15947;DHT22;8072;52.554;7.966;2023-07-29T05:13:24;18.30;99.90
15947;DHT22;8072;52.554;7.966;2023-07-29T05:15:50;18.30;99.90
15947;DHT22;8072;52.554;7.966;2023-07-29T05:18:16;18.30;99.90
15947;DHT22;8072;52.554;7.966;2023-07-29T05:20:42;18.30;99.90
15947;DHT22;8072;52.554;7.966;2023-07-29T05:23:08;18.30;99.90
15947;DHT22;8072;52.554;7.966;2023-07-29T05:25:34;18.30;99.90
15947;DHT22;8072;52.554;7.966;2023-07-29T05:28:01;18.30;99.90
15947;DHT22;8072;52.554;7.966;2023-07-29T05:30:27;18.30;99.90
15947;DHT22;8072;52.554;7.966;2023-07-29T05:32:57;18.30;99.90
15947;DHT22;8072;52.554;7.966;2023-07-29T05:35:23;18.40;99.90
15947;DHT22;8072;52.554;7.966;2023-07-29T05:37:49;18.30;99.90
15947;DHT22;8072;52.554;7.966;2023-07-29T05:40:15;18.40;99.90
15947;DHT22;8072;52.554;7.966;2023-07-29T05:42:40;18.40;99.90
15947;DHT22;8072;52.554;7.966;2023-07-29T05:45:07;18.40;99.90
15947;DHT22;8072;52.554;7.966;2023-07-29T05:47:33;18.40;99.90
15947;DHT22;8072;52.554;7.966;2023-07-29T05:49:58;18.40;99.90
15947;DHT22;8072;52.554;7.966;2023-07-29T05:52:25;18.40;99.90
15947;DHT22;8072;52.554;7.966;2023-07-29T05:54:51;18.40;99.90
15947;DHT22;8072;52.554;7.966;2023-07-29T05:57:16;18.40;99.90
15947;DHT22;8072;52.554;7.966;2023-07-29T05:59:42;18.40;99.90
15947;DHT22;8072;52.554;7.966;2023-07-29T06:02:08;18.40;99.90
15947;DHT22;8072;52.554;7.966;2023-07-29T06:04:34;18.40;99.90
15947;DHT22;8072;52.554;7.966;2023-07-29T06:07:00;18.40;99.90
15947;DHT22;8072;52.554;7.966;2023-07-29T06:09:25;18.40;99.90
15947;DHT22;8072;52.554;7.966;2023-07-29T06:11:51;18.40;99.90
15947;DHT22;8072;52.554;7.966;2023-07-29T06:14:17;18.40;99.90
15947;DHT22;8072;52.554;7.966;2023-07-29T06:16:43;18.40;99.90
15947;DHT22;8072;52.554;7.966;2023-07-29T06:19:08;18.40;99.90
15947;DHT22;8072;52.554;7.966;2023-07-29T06:21:35;18.50;99.90
15947;DHT22;8072;52.554;7.966;2023-07-29T06:24:01;18.50;99.90
15947;DHT22;8072;52.554;7.966;2023-07-29T06:26:27;18.50;99.90
15947;DHT22;8072;52.554;7.966;2023-07-29T06:28:53;18.60;99.90
15947;DHT22;8072;52.554;7.966;2023-07-29T06:31:19;18.60;99.90
15947;DHT22;8072;52.554;7.966;2023-07-29T06:33:44;18.60;99.90
15947;DHT22;8072;52.554;7.966;2023-07-29T06:36:10;18.70;99.90
15947;DHT22;8072;52.554;7.966;2023-07-29T06:38:36;18.70;99.90
15947;DHT22;8072;52.554;7.966;2023-07-29T06:41:02;18.80;99.90
15947;DHT22;8072;52.554;7.966;2023-07-29T06:43:28;18.80;99.90
15947;DHT22;8072;52.554;7.966;2023-07-29T06:45:53;18.80;99.90
15947;DHT22;8072;52.554;7.966;2023-07-29T06:48:20;18.90;99.90
15947;DHT22;8072;52.554;7.966;2023-07-29T06:50:46;18.80;99.90
15947;DHT22;8072;52.554;7.966;2023-07-29T06:53:12;18.80;99.90
15947;DHT22;8072;52.554;7.966;2023-07-29T06:55:37;18.90;99.90
15947;DHT22;8072;52.554;7.966;2023-07-29T06:58:04;18.80;99.90
15947;DHT22;8072;52.554;7.966;2023-07-29T07:00:30;18.80;99.90
15947;DHT22;8072;52.554;7.966;2023-07-29T07:02:55;18.80;99.90
15947;DHT22;8072;52.554;7.966;2023-07-29T07:05:21;18.80;99.90
15947;DHT22;8072;52.554;7.966;2023-07-29T07:07:47;18.80;99.90
15947;DHT22;8072;52.554;7.966;2023-07-29T07:10:13;18.80;99.90
15947;DHT22;8072;52.554;7.966;2023-07-29T07:12:39;18.90;99.90
15947;DHT22;8072;52.554;7.966;2023-07-29T07:15:05;18.90;99.90
15947;DHT22;8072;52.554;7.966;2023-07-29T07:17:31;19.00;99.90
15947;DHT22;8072;52.554;7.966;2023-07-29T07:19:57;19.00;99.90
15947;DHT22;8072;52.554;7.966;2023-07-29T07:22:22;19.10;99.90
15947;DHT22;8072;52.554;7.966;2023-07-29T07:24:49;19.10;99.90
15947;DHT22;8072;52.554;7.966;2023-07-29T07:27:15;19.10;99.90
15947;DHT22;8072;52.554;7.966;2023-07-29T07:29:40;19.20;99.90
15947;DHT22;8072;52.554;7.966;2023-07-29T07:32:06;19.20;99.90
15947;DHT22;8072;52.554;7.966;2023-07-29T07:34:32;19.20;99.90
15947;DHT22;8072;52.554;7.966;2023-07-29T07:36:59;19.20;99.90
15947;DHT22;8072;52.554;7.966;2023-07-29T07:39:26;19.20;99.90
15947;DHT22;8072;52.554;7.966;2023-07-29T07:41:51;19.20;99.90
15947;DHT22;8072;52.554;7.966;2023-07-29T07:44:17;19.20;99.90
15947;DHT22;8072;52.554;7.966;2023-07-29T07:46:45;19.20;99.90
15947;DHT22;8072;52.554;7.966;2023-07-29T07:49:11;19.20;99.90
15947;DHT22;8072;52.554;7.966;2023-07-29T07:51:38;19.20;99.90
15947;DHT22;8072;52.554;7.966;2023-07-29T07:54:04;19.20;99.90
15947;DHT22;8072;52.554;7.966;2023-07-29T07:56:30;19.10;99.90
15947;DHT22;8072;52.554;7.966;2023-07-29T07:58:56;19.20;99.90
15947;DHT22;8072;52.554;7.966;2023-07-29T08:01:21;19.30;99.90
15947;DHT22;8072;52.554;7.966;2023-07-29T08:03:47;19.40;99.90
15947;DHT22;8072;52.554;7.966;2023-07-29T08:06:13;19.40;99.90
15947;DHT22;8072;52.554;7.966;2023-07-29T08:08:39;19.50;99.90
15947;DHT22;8072;52.554;7.966;2023-07-29T08:11:04;19.60;99.90
15947;DHT22;8072;52.554;7.966;2023-07-29T08:13:30;19.70;99.90
15947;DHT22;8072;52.554;7.966;2023-07-29T08:15:56;19.80;99.90
15947;DHT22;8072;52.554;7.966;2023-07-29T08:18:22;19.80;99.90
15947;DHT22;8072;52.554;7.966;2023-07-29T08:20:58;19.70;99.90
15947;DHT22;8072;52.554;7.966;2023-07-29T08:23:27;19.80;99.90
15947;DHT22;8072;52.554;7.966;2023-07-29T08:25:54;19.80;99.90
15947;DHT22;8072;52.554;7.966;2023-07-29T08:28:22;19.80;99.90
15947;DHT22;8072;52.554;7.966;2023-07-29T08:30:47;19.80;99.90
15947;DHT22;8072;52.554;7.966;2023-07-29T08:33:14;19.70;99.90
15947;DHT22;8072;52.554;7.966;2023-07-29T08:35:39;19.80;99.90
15947;DHT22;8072;52.554;7.966;2023-07-29T08:38:05;19.70;99.90
15947;DHT22;8072;52.554;7.966;2023-07-29T08:40:32;19.70;99.90
15947;DHT22;8072;52.554;7.966;2023-07-29T08:43:04;19.70;99.90
15947;DHT22;8072;52.554;7.966;2023-07-29T08:45:33;19.70;99.90
15947;DHT22;8072;52.554;7.966;2023-07-29T08:48:02;19.70;99.90
15947;DHT22;8072;52.554;7.966;2023-07-29T08:50:32;19.80;99.90
15947;DHT22;8072;52.554;7.966;2023-07-29T08:52:59;19.90;99.90
15947;DHT22;8072;52.554;7.966;2023-07-29T08:55:26;20.00;99.90
15947;DHT22;8072;52.554;7.966;2023-07-29T08:57:53;20.20;99.90
15947;DHT22;8072;52.554;7.966;2023-07-29T09:00:19;20.40;99.90
15947;DHT22;8072;52.554;7.966;2023-07-29T09:02:45;20.50;99.90
15947;DHT22;8072;52.554;7.966;2023-07-29T09:05:11;20.40;99.90
15947;DHT22;8072;52.554;7.966;2023-07-29T09:07:36;20.50;99.90
15947;DHT22;8072;52.554;7.966;2023-07-29T09:10:04;20.50;99.90
15947;DHT22;8072;52.554;7.966;2023-07-29T09:12:30;20.60;99.90
15947;DHT22;8072;52.554;7.966;2023-07-29T09:14:55;20.60;99.90
15947;DHT22;8072;52.554;7.966;2023-07-29T09:17:21;20.70;99.90
15947;DHT22;8072;52.554;7.966;2023-07-29T09:19:48;20.80;99.90
15947;DHT22;8072;52.554;7.966;2023-07-29T09:22:19;20.90;99.90
15947;DHT22;8072;52.554;7.966;2023-07-29T09:24:48;20.90;99.90
15947;DHT22;8072;52.554;7.966;2023-07-29T09:27:27;21.00;99.90
15947;DHT22;8072;52.554;7.966;2023-07-29T09:29:53;21.10;99.90
15947;DHT22;8072;52.554;7.966;2023-07-29T09:32:20;21.10;99.90
15947;DHT22;8072;52.554;7.966;2023-07-29T09:34:47;21.10;99.90
15947;DHT22;8072;52.554;7.966;2023-07-29T09:37:23;21.20;99.90
15947;DHT22;8072;52.554;7.966;2023-07-29T09:39:49;21.20;99.90
15947;DHT22;8072;52.554;7.966;2023-07-29T09:42:20;21.30;99.90
15947;DHT22;8072;52.554;7.966;2023-07-29T09:44:46;21.30;99.90
15947;DHT22;8072;52.554;7.966;2023-07-29T09:47:26;21.40;99.90
15947;DHT22;8072;52.554;7.966;2023-07-29T09:49:52;21.30;99.90
15947;DHT22;8072;52.554;7.966;2023-07-29T09:52:20;21.40;99.90
15947;DHT22;8072;52.554;7.966;2023-07-29T09:54:47;21.40;99.90
15947;DHT22;8072;52.554;7.966;2023-07-29T09:57:18;21.40;99.90
15947;DHT22;8072;52.554;7.966;2023-07-29T09:59:56;21.60;99.90
15947;DHT22;8072;52.554;7.966;2023-07-29T10:02:23;21.70;99.90
15947;DHT22;8072;52.554;7.966;2023-07-29T10:04:51;21.80;99.90
15947;DHT22;8072;52.554;7.966;2023-07-29T10:07:17;21.80;99.90
15947;DHT22;8072;52.554;7.966;2023-07-29T10:09:45;21.90;99.90
15947;DHT22;8072;52.554;7.966;2023-07-29T10:12:11;21.80;99.90
15947;DHT22;8072;52.554;7.966;2023-07-29T10:14:38;21.70;99.90
15947;DHT22;8072;52.554;7.966;2023-07-29T10:17:07;21.70;99.90
15947;DHT22;8072;52.554;7.966;2023-07-29T10:19:34;21.60;99.90
15947;DHT22;8072;52.554;7.966;2023-07-29T10:22:03;21.60;99.90
15947;DHT22;8072;52.554;7.966;2023-07-29T10:24:31;21.60;99.90
15947;DHT22;8072;52.554;7.966;2023-07-29T10:26:59;21.70;99.90
15947;DHT22;8072;52.554;7.966;2023-07-29T10:29:30;21.80;99.90
15947;DHT22;8072;52.554;7.966;2023-07-29T10:31:57;21.90;99.90
15947;DHT22;8072;52.554;7.966;2023-07-29T10:34:24;22.10;99.90
15947;DHT22;8072;52.554;7.966;2023-07-29T10:36:50;22.30;99.90
15947;DHT22;8072;52.554;7.966;2023-07-29T10:39:17;22.30;99.90
15947;DHT22;8072;52.554;7.966;2023-07-29T10:42:04;22.30;99.90
15947;DHT22;8072;52.554;7.966;2023-07-29T10:49:56;22.40;99.90
15947;DHT22;8072;52.554;7.966;2023-07-29T10:55:00;22.50;99.90
15947;DHT22;8072;52.554;7.966;2023-07-29T10:57:37;22.50;99.90
15947;DHT22;8072;52.554;7.966;2023-07-29T11:00:04;22.50;99.90
15947;DHT22;8072;52.554;7.966;2023-07-29T11:02:37;22.50;99.90
15947;DHT22;8072;52.554;7.966;2023-07-29T11:05:17;22.40;99.90
15947;DHT22;8072;52.554;7.966;2023-07-29T11:07:47;22.40;99.90
15947;DHT22;8072;52.554;7.966;2023-07-29T11:10:14;22.40;99.90
15947;DHT22;8072;52.554;7.966;2023-07-29T11:12:50;22.60;99.90
15947;DHT22;8072;52.554;7.966;2023-07-29T11:15:24;22.50;99.90
15947;DHT22;8072;52.554;7.966;2023-07-29T11:17:51;22.60;99.90
15947;DHT22;8072;52.554;7.966;2023-07-29T11:20:20;22.80;99.90
15947;DHT22;8072;52.554;7.966;2023-07-29T11:22:46;23.00;99.90
15947;DHT22;8072;52.554;7.966;2023-07-29T11:25:14;23.10;99.90
15947;DHT22;8072;52.554;7.966;2023-07-29T11:27:40;23.20;99.90
15947;DHT22;8072;52.554;7.966;2023-07-29T11:30:10;23.30;99.90
15947;DHT22;8072;52.554;7.966;2023-07-29T11:32:37;23.50;99.90
15947;DHT22;8072;52.554;7.966;2023-07-29T11:37:37;23.50;99.90
15947;DHT22;8072;52.554;7.966;2023-07-29T11:40:04;23.40;99.90
15947;DHT22;8072;52.554;7.966;2023-07-29T11:42:34;23.40;99.90
15947;DHT22;8072;52.554;7.966;2023-07-29T11:45:01;23.10;99.90
15947;DHT22;8072;52.554;7.966;2023-07-29T11:47:27;23.10;99.90
15947;DHT22;8072;52.554;7.966;2023-07-29T11:49:52;23.30;99.90
15947;DHT22;8072;52.554;7.966;2023-07-29T11:52:19;23.50;99.90
15947;DHT22;8072;52.554;7.966;2023-07-29T11:54:49;23.60;99.90
15947;DHT22;8072;52.554;7.966;2023-07-29T11:57:16;23.80;99.90
15947;DHT22;8072;52.554;7.966;2023-07-29T11:59:42;23.90;99.90
15947;DHT22;8072;52.554;7.966;2023-07-29T12:02:13;23.60;99.90
15947;DHT22;8072;52.554;7.966;2023-07-29T12:04:40;23.50;99.90
15947;DHT22;8072;52.554;7.966;2023-07-29T12:07:07;23.20;99.90
15947;DHT22;8072;52.554;7.966;2023-07-29T12:09:36;23.00;99.90
15947;DHT22;8072;52.554;7.966;2023-07-29T12:12:05;23.20;99.90
15947;DHT22;8072;52.554;7.966;2023-07-29T12:14:32;23.30;99.90
15947;DHT22;8072;52.554;7.966;2023-07-29T12:17:00;23.30;99.90
15947;DHT22;8072;52.554;7.966;2023-07-29T12:19:35;23.40;99.90
15947;DHT22;8072;52.554;7.966;2023-07-29T12:22:02;23.30;99.90
15947;DHT22;8072;52.554;7.966;2023-07-29T12:24:33;23.40;99.90
15947;DHT22;8072;52.554;7.966;2023-07-29T12:26:59;23.60;99.90
15947;DHT22;8072;52.554;7.966;2023-07-29T12:29:25;23.60;99.90
15947;DHT22;8072;52.554;7.966;2023-07-29T12:32:04;23.60;99.90
15947;DHT22;8072;52.554;7.966;2023-07-29T12:34:30;23.70;99.90
15947;DHT22;8072;52.554;7.966;2023-07-29T12:36:58;23.60;99.90
15947;DHT22;8072;52.554;7.966;2023-07-29T12:39:30;23.60;99.90
15947;DHT22;8072;52.554;7.966;2023-07-29T12:41:59;23.50;99.90
15947;DHT22;8072;52.554;7.966;2023-07-29T12:44:30;23.30;99.90
15947;DHT22;8072;52.554;7.966;2023-07-29T12:46:56;23.10;99.90
15947;DHT22;8072;52.554;7.966;2023-07-29T12:49:21;23.00;99.90
15947;DHT22;8072;52.554;7.966;2023-07-29T12:51:48;23.00;99.90
15947;DHT22;8072;52.554;7.966;2023-07-29T12:54:14;23.00;99.90
15947;DHT22;8072;52.554;7.966;2023-07-29T12:56:39;23.00;99.90
15947;DHT22;8072;52.554;7.966;2023-07-29T12:59:05;23.00;99.90
15947;DHT22;8072;52.554;7.966;2023-07-29T13:01:31;23.00;99.90
15947;DHT22;8072;52.554;7.966;2023-07-29T13:03:57;23.10;99.90
15947;DHT22;8072;52.554;7.966;2023-07-29T13:06:23;23.10;99.90
15947;DHT22;8072;52.554;7.966;2023-07-29T13:08:48;23.00;99.90
15947;DHT22;8072;52.554;7.966;2023-07-29T13:11:15;23.10;99.90
15947;DHT22;8072;52.554;7.966;2023-07-29T13:13:40;23.10;99.90
15947;DHT22;8072;52.554;7.966;2023-07-29T13:16:06;23.10;99.90
15947;DHT22;8072;52.554;7.966;2023-07-29T13:18:33;23.20;99.90
15947;DHT22;8072;52.554;7.966;2023-07-29T13:20:59;23.20;99.90
15947;DHT22;8072;52.554;7.966;2023-07-29T13:23:26;23.40;99.90
15947;DHT22;8072;52.554;7.966;2023-07-29T13:25:52;23.50;99.90
15947;DHT22;8072;52.554;7.966;2023-07-29T13:28:18;23.70;99.90
15947;DHT22;8072;52.554;7.966;2023-07-29T13:30:44;23.90;99.90
15947;DHT22;8072;52.554;7.966;2023-07-29T13:33:10;23.90;99.90
15947;DHT22;8072;52.554;7.966;2023-07-29T13:35:36;24.00;99.90
15947;DHT22;8072;52.554;7.966;2023-07-29T13:38:02;24.30;99.90
15947;DHT22;8072;52.554;7.966;2023-07-29T13:40:28;24.30;99.90
15947;DHT22;8072;52.554;7.966;2023-07-29T13:42:55;24.30;99.90
15947;DHT22;8072;52.554;7.966;2023-07-29T13:45:21;24.20;99.90
15947;DHT22;8072;52.554;7.966;2023-07-29T13:47:48;24.20;99.90
15947;DHT22;8072;52.554;7.966;2023-07-29T13:50:14;24.20;99.90
15947;DHT22;8072;52.554;7.966;2023-07-29T13:52:40;24.30;99.90
15947;DHT22;8072;52.554;7.966;2023-07-29T13:55:06;24.40;99.90
15947;DHT22;8072;52.554;7.966;2023-07-29T13:57:32;24.30;99.90
15947;DHT22;8072;52.554;7.966;2023-07-29T13:59:58;24.00;99.90
15947;DHT22;8072;52.554;7.966;2023-07-29T14:02:24;23.90;99.90
15947;DHT22;8072;52.554;7.966;2023-07-29T14:04:52;23.90;99.90
15947;DHT22;8072;52.554;7.966;2023-07-29T14:07:18;23.90;99.90
15947;DHT22;8072;52.554;7.966;2023-07-29T14:09:43;23.80;99.90
15947;DHT22;8072;52.554;7.966;2023-07-29T14:12:09;23.70;99.90
15947;DHT22;8072;52.554;7.966;2023-07-29T14:14:40;23.40;99.90
15947;DHT22;8072;52.554;7.966;2023-07-29T14:17:06;23.40;99.90
15947;DHT22;8072;52.554;7.966;2023-07-29T14:19:34;23.30;99.90
15947;DHT22;8072;52.554;7.966;2023-07-29T14:22:00;23.10;99.90
15947;DHT22;8072;52.554;7.966;2023-07-29T14:24:26;23.10;99.90
15947;DHT22;8072;52.554;7.966;2023-07-29T14:26:51;23.00;99.90
15947;DHT22;8072;52.554;7.966;2023-07-29T14:29:17;22.90;99.90
15947;DHT22;8072;52.554;7.966;2023-07-29T14:31:43;22.90;99.90
15947;DHT22;8072;52.554;7.966;2023-07-29T14:34:09;22.80;99.90
15947;DHT22;8072;52.554;7.966;2023-07-29T14:36:36;22.80;99.90
15947;DHT22;8072;52.554;7.966;2023-07-29T14:39:01;22.80;99.90
15947;DHT22;8072;52.554;7.966;2023-07-29T14:41:27;22.80;99.90
15947;DHT22;8072;52.554;7.966;2023-07-29T14:43:53;22.80;99.90
15947;DHT22;8072;52.554;7.966;2023-07-29T14:46:18;22.90;99.90
15947;DHT22;8072;52.554;7.966;2023-07-29T14:48:44;23.10;99.90
15947;DHT22;8072;52.554;7.966;2023-07-29T14:51:12;23.30;99.90
15947;DHT22;8072;52.554;7.966;2023-07-29T14:53:38;23.50;99.90
15947;DHT22;8072;52.554;7.966;2023-07-29T14:56:04;23.60;99.90
15947;DHT22;8072;52.554;7.966;2023-07-29T14:58:30;23.60;99.90
15947;DHT22;8072;52.554;7.966;2023-07-29T15:00:56;23.80;99.90
15947;DHT22;8072;52.554;7.966;2023-07-29T15:03:23;23.90;99.90
15947;DHT22;8072;52.554;7.966;2023-07-29T15:05:49;24.00;99.90
15947;DHT22;8072;52.554;7.966;2023-07-29T15:08:15;24.00;99.90
15947;DHT22;8072;52.554;7.966;2023-07-29T15:10:40;24.10;99.90
15947;DHT22;8072;52.554;7.966;2023-07-29T15:13:06;24.00;99.90
15947;DHT22;8072;52.554;7.966;2023-07-29T15:15:32;23.90;99.90
15947;DHT22;8072;52.554;7.966;2023-07-29T15:17:58;23.90;99.90
15947;DHT22;8072;52.554;7.966;2023-07-29T15:20:23;23.80;99.90
15947;DHT22;8072;52.554;7.966;2023-07-29T15:22:49;23.70;99.90
15947;DHT22;8072;52.554;7.966;2023-07-29T15:25:15;23.60;99.90
15947;DHT22;8072;52.554;7.966;2023-07-29T15:27:40;23.50;99.90
15947;DHT22;8072;52.554;7.966;2023-07-29T15:30:07;23.40;99.90
15947;DHT22;8072;52.554;7.966;2023-07-29T15:32:32;23.40;99.90
15947;DHT22;8072;52.554;7.966;2023-07-29T15:34:58;23.50;99.90
15947;DHT22;8072;52.554;7.966;2023-07-29T15:37:27;23.40;99.90
15947;DHT22;8072;52.554;7.966;2023-07-29T15:43:19;23.30;99.90
15947;DHT22;8072;52.554;7.966;2023-07-29T15:45:47;23.50;99.90
15947;DHT22;8072;52.554;7.966;2023-07-29T15:48:13;23.60;99.90
15947;DHT22;8072;52.554;7.966;2023-07-29T15:50:39;23.60;99.90
15947;DHT22;8072;52.554;7.966;2023-07-29T15:53:05;23.60;99.90
15947;DHT22;8072;52.554;7.966;2023-07-29T15:55:30;23.70;99.90
15947;DHT22;8072;52.554;7.966;2023-07-29T15:57:57;23.70;99.90
15947;DHT22;8072;52.554;7.966;2023-07-29T16:00:22;23.70;99.90
15947;DHT22;8072;52.554;7.966;2023-07-29T16:02:49;23.60;99.90
15947;DHT22;8072;52.554;7.966;2023-07-29T16:05:15;23.50;99.90